createdAt,value
2023-03-21T00:03:49.262Z,5.57
2023-03-21T00:07:52.431Z,4.40
2023-03-21T00:11:56.980Z,5.15
2023-03-21T00:16:07.522Z,6.03
2023-03-21T00:20:23.515Z,7.18
2023-03-21T00:24:26.505Z,4.45
2023-03-21T00:28:30.994Z,5.22
2023-03-21T00:32:35.658Z,4.45
2023-03-21T00:36:42.940Z,5.32
2023-03-21T00:40:49.189Z,4.72
2023-03-21T00:44:53.724Z,3.88
2023-03-21T00:48:56.590Z,4.75
2023-03-21T00:53:00.024Z,4.47
2023-03-21T00:57:03.129Z,4.50
2023-03-21T01:01:09.422Z,5.18
2023-03-21T01:05:13.139Z,6.60
2023-03-21T01:09:18.132Z,4.82
2023-03-21T01:13:23.855Z,4.88
2023-03-21T01:17:28.479Z,4.93
2023-03-21T01:21:31.941Z,5.05
2023-03-21T01:25:35.135Z,5.53
2023-03-21T01:29:38.228Z,5.53
2023-03-21T01:33:43.608Z,3.90
2023-03-21T01:37:48.807Z,7.00
2023-03-21T01:41:52.219Z,5.25
2023-03-21T01:46:43.479Z,5.18
2023-03-21T01:51:13.486Z,5.60
2023-03-21T01:55:30.838Z,6.10
2023-03-21T01:59:41.976Z,5.32
2023-03-21T02:04:11.391Z,5.95
2023-03-21T02:08:38.766Z,5.53
2023-03-21T02:12:46.519Z,5.53
2023-03-21T02:16:59.186Z,7.28
2023-03-21T02:21:36.445Z,5.60
2023-03-21T02:26:16.142Z,5.65
2023-03-21T02:31:01.254Z,5.38
2023-03-21T02:35:44.170Z,5.93
2023-03-21T02:40:09.613Z,5.15
2023-03-21T02:44:21.962Z,5.22
2023-03-21T02:48:44.520Z,4.75
2023-03-21T02:52:54.929Z,5.03
2023-03-21T02:57:02.123Z,5.07
2023-03-21T03:01:07.129Z,5.50
2023-03-21T03:05:21.877Z,4.45
2023-03-21T03:09:39.394Z,4.25
2023-03-21T03:13:58.574Z,5.75
2023-03-21T03:18:08.183Z,6.22
2023-03-21T03:22:16.223Z,4.50
2023-03-21T03:26:22.602Z,5.85
2023-03-21T03:30:39.299Z,4.88
2023-03-21T03:34:50.887Z,5.85
2023-03-21T03:38:57.731Z,5.07
2023-03-21T03:43:06.238Z,5.22
2023-03-21T03:47:32.413Z,5.68
2023-03-21T03:51:41.828Z,6.25
2023-03-21T03:56:01.473Z,7.50
2023-03-21T04:00:11.872Z,7.35
2023-03-21T04:04:22.918Z,5.60
2023-03-21T04:08:28.107Z,5.40
2023-03-21T04:12:33.647Z,6.05
2023-03-21T04:17:03.628Z,5.82
2023-03-21T04:21:14.511Z,6.10
2023-03-21T04:25:30.703Z,5.53
2023-03-21T04:29:36.537Z,5.82
2023-03-21T04:34:09.690Z,6.03
2023-03-21T04:38:15.508Z,5.43
2023-03-21T04:42:20.051Z,6.45
2023-03-21T04:46:24.311Z,6.22
2023-03-21T04:50:27.463Z,6.00
2023-03-21T04:54:32.360Z,4.80
2023-03-21T04:58:35.270Z,6.53
2023-03-21T05:02:39.051Z,5.68
2023-03-21T05:06:43.984Z,6.75
2023-03-21T05:10:48.326Z,5.28
2023-03-21T05:14:52.791Z,8.05
2023-03-21T05:18:55.828Z,6.63
2023-03-21T05:22:59.131Z,8.60
2023-03-21T05:27:03.667Z,5.50
2023-03-21T05:31:16.737Z,6.03
2023-03-21T05:35:21.719Z,5.72
2023-03-21T05:39:25.251Z,5.78
2023-03-21T05:43:38.569Z,4.78
2023-03-21T05:47:42.297Z,5.90
2023-03-21T05:51:47.178Z,6.35
2023-03-21T05:55:50.219Z,5.80
2023-03-21T06:00:14.817Z,7.13
2023-03-21T06:04:29.666Z,6.43
2023-03-21T06:08:32.803Z,5.85
2023-03-21T06:12:37.012Z,7.35
2023-03-21T06:16:58.452Z,8.52
2023-03-21T06:21:01.959Z,6.32
2023-03-21T06:25:07.531Z,8.35
2023-03-21T06:29:11.215Z,8.85
2023-03-21T06:33:15.694Z,5.93
2023-03-21T06:37:20.438Z,8.75
2023-03-21T06:41:23.769Z,7.63
2023-03-21T06:45:37.515Z,6.55
2023-03-21T06:49:43.945Z,6.80
2023-03-21T06:53:49.179Z,6.93
2023-03-21T06:57:59.194Z,7.20
2023-03-21T07:02:04.296Z,6.13
2023-03-21T07:06:13.607Z,4.72
2023-03-21T07:10:17.856Z,5.95
2023-03-21T07:14:27.722Z,4.82
2023-03-21T07:18:31.488Z,5.93
2023-03-21T07:22:36.567Z,6.38
2023-03-21T07:26:40.439Z,5.60
2023-03-21T07:30:43.762Z,4.72
2023-03-21T07:34:46.690Z,5.25
2023-03-21T07:38:51.375Z,4.50
2023-03-21T07:42:58.931Z,4.75
2023-03-21T07:47:07.399Z,5.78
2023-03-21T07:51:10.368Z,3.60
2023-03-21T07:55:14.797Z,5.30
2023-03-21T07:59:17.753Z,5.30
2023-03-21T08:03:21.305Z,5.18
2023-03-21T08:07:24.296Z,4.07
2023-03-21T08:11:31.341Z,4.40
2023-03-21T08:15:34.292Z,4.70
2023-03-21T08:19:37.770Z,4.35
2023-03-21T08:23:40.834Z,4.78
2023-03-21T08:27:46.977Z,5.20
2023-03-21T08:31:50.059Z,5.07
2023-03-21T08:35:52.994Z,4.07
2023-03-21T08:39:56.502Z,5.55
2023-03-21T08:44:00.934Z,5.28
2023-03-21T08:48:03.885Z,3.85
2023-03-21T08:52:07.212Z,5.13
2023-03-21T08:56:10.989Z,4.70
2023-03-21T09:00:18.356Z,4.30
2023-03-21T09:04:21.313Z,4.28
2023-03-21T09:08:24.379Z,5.63
2023-03-21T09:12:27.669Z,4.55
2023-03-21T09:16:32.465Z,4.07
2023-03-21T09:20:38.390Z,6.03
2023-03-21T09:24:42.562Z,6.13
2023-03-21T09:28:46.248Z,5.78
2023-03-21T09:32:50.610Z,5.03
2023-03-21T09:36:54.700Z,4.75
2023-03-21T09:41:10.344Z,4.50
2023-03-21T09:45:20.502Z,5.03
2023-03-21T09:49:31.070Z,6.78
2023-03-21T09:53:37.648Z,3.90
2023-03-21T09:57:45.764Z,3.65
2023-03-21T10:01:50.452Z,5.43
2023-03-21T10:05:58.592Z,3.83
2023-03-21T10:10:04.511Z,4.47
2023-03-21T10:14:14.172Z,4.20
2023-03-21T10:18:22.573Z,4.40
2023-03-21T10:22:27.069Z,3.70
2023-03-21T10:26:31.458Z,5.65
2023-03-21T10:30:39.825Z,3.83
2023-03-21T10:34:46.832Z,3.63
2023-03-21T10:38:56.216Z,4.35
2023-03-21T10:43:18.123Z,3.42
2023-03-21T10:47:23.142Z,2.97
2023-03-21T10:51:29.361Z,4.75
2023-03-21T10:55:36.026Z,2.78
2023-03-21T10:59:43.260Z,3.28
2023-03-21T11:03:48.245Z,2.28
2023-03-21T11:07:59.776Z,3.20
2023-03-21T11:12:06.799Z,3.13
2023-03-21T11:16:12.772Z,4.68
2023-03-21T11:20:20.064Z,3.70
2023-03-21T11:24:23.313Z,2.60
2023-03-21T11:28:34.704Z,3.45
2023-03-21T11:32:39.635Z,2.60
2023-03-21T11:36:42.627Z,4.43
2023-03-21T11:40:54.746Z,3.40
2023-03-21T11:45:12.696Z,4.43
2023-03-21T11:49:15.636Z,3.15
2023-03-21T11:53:32.053Z,2.40
2023-03-21T11:57:44.721Z,3.10
2023-03-21T12:01:59.759Z,2.80
2023-03-21T12:06:06.554Z,3.28
2023-03-21T12:10:31.604Z,2.92
2023-03-21T12:14:45.273Z,2.30
2023-03-21T12:19:03.970Z,4.43
2023-03-21T12:23:33.273Z,2.13
2023-03-21T12:27:46.136Z,2.90
2023-03-21T12:31:59.860Z,3.10
2023-03-21T12:36:17.741Z,3.13
2023-03-21T12:40:34.361Z,2.75
2023-03-21T12:44:41.983Z,1.92
2023-03-21T12:48:48.729Z,2.78
2023-03-21T12:52:56.931Z,2.05
2023-03-21T12:57:06.034Z,2.22
2023-03-21T13:01:12.148Z,2.42
2023-03-21T13:05:20.850Z,3.03
2023-03-21T13:09:38.019Z,1.90
2023-03-21T13:13:47.028Z,1.67
2023-03-21T13:17:55.515Z,1.75
2023-03-21T13:22:07.313Z,3.10
2023-03-21T13:26:12.774Z,2.83
2023-03-21T13:30:22.429Z,2.55
2023-03-21T13:34:26.780Z,2.15
2023-03-21T13:38:30.983Z,2.72
2023-03-21T13:42:35.282Z,2.80
2023-03-21T13:46:54.064Z,2.70
2023-03-21T13:51:03.027Z,2.00
2023-03-21T13:55:16.528Z,2.55
2023-03-21T13:59:38.309Z,1.73
2023-03-21T14:03:41.936Z,2.28
2023-03-21T14:07:50.045Z,1.77
2023-03-21T14:11:58.726Z,1.63
2023-03-21T14:16:13.784Z,1.77
2023-03-21T14:20:21.444Z,2.80
2023-03-21T14:24:24.577Z,1.50
2023-03-21T14:28:32.937Z,1.83
2023-03-21T14:32:37.264Z,2.72
2023-03-21T14:36:45.724Z,2.05
2023-03-21T14:40:53.812Z,4.13
2023-03-21T14:45:00.459Z,1.83
2023-03-21T14:49:19.866Z,2.38
2023-03-21T14:53:27.103Z,1.60
2023-03-21T14:57:35.666Z,1.48
2023-03-21T15:01:38.700Z,1.95
2023-03-21T15:05:43.390Z,1.60
2023-03-21T15:09:55.196Z,0.80
2023-03-21T15:14:00.959Z,1.20
2023-03-21T15:18:06.800Z,1.65
2023-03-21T15:22:18.988Z,1.50
2023-03-21T15:26:25.424Z,1.30
2023-03-21T15:30:30.854Z,1.38
2023-03-21T15:34:33.855Z,1.30
2023-03-21T15:38:42.495Z,3.60
2023-03-21T15:42:46.430Z,2.03
2023-03-21T15:46:51.374Z,1.20
2023-03-21T15:51:00.405Z,2.90
2023-03-21T15:55:21.203Z,1.13
2023-03-21T15:59:27.932Z,1.20
2023-03-21T16:03:33.335Z,1.67
2023-03-21T16:07:36.427Z,1.80
2023-03-21T16:11:43.550Z,1.48
2023-03-21T16:15:47.101Z,1.27
2023-03-21T16:19:50.078Z,1.98
2023-03-21T16:23:53.475Z,1.60
2023-03-21T16:27:58.389Z,1.20
2023-03-21T16:32:06.126Z,1.40
2023-03-21T16:36:15.481Z,0.95
2023-03-21T16:40:27.648Z,1.95
2023-03-21T16:44:32.008Z,2.72
2023-03-21T16:48:34.944Z,1.42
2023-03-21T16:52:38.020Z,1.27
2023-03-21T16:56:44.133Z,1.98
2023-03-21T17:00:50.623Z,1.10
2023-03-21T17:04:56.395Z,1.25
2023-03-21T17:09:00.702Z,1.38
2023-03-21T17:13:03.961Z,1.10
2023-03-21T17:17:14.728Z,2.05
2023-03-21T17:21:20.830Z,1.55
2023-03-21T17:25:24.062Z,1.40
2023-03-21T17:29:27.463Z,5.95
2023-03-21T17:33:32.081Z,2.95
2023-03-21T17:37:35.491Z,1.92
2023-03-21T17:41:38.851Z,4.60
2023-03-21T17:45:41.818Z,7.45
2023-03-21T17:49:46.594Z,1.77
2023-03-21T17:53:51.733Z,2.42
2023-03-21T17:57:54.918Z,5.88
2023-03-21T18:01:57.892Z,2.25
2023-03-21T18:06:02.226Z,1.60
2023-03-21T18:10:06.359Z,2.67
2023-03-21T18:14:17.267Z,2.58
2023-03-21T18:18:21.922Z,2.40
2023-03-21T18:22:26.284Z,4.78
2023-03-21T18:26:31.204Z,2.47
2023-03-21T18:30:56.423Z,4.20
2023-03-21T18:34:59.661Z,4.15
2023-03-21T18:39:05.129Z,5.30
2023-03-21T18:43:56.072Z,3.80
2023-03-21T18:47:31.328Z,4.75
2023-03-21T18:51:34.272Z,5.43
2023-03-21T18:55:45.963Z,4.70
2023-03-21T18:59:49.605Z,4.07
2023-03-21T19:04:17.830Z,6.55
2023-03-21T19:08:22.251Z,5.07
2023-03-21T19:12:26.779Z,6.10
2023-03-21T19:16:32.637Z,4.63
2023-03-21T19:20:44.392Z,4.38
2023-03-21T19:24:47.450Z,5.05
2023-03-21T19:28:51.761Z,8.23
2023-03-21T19:32:54.693Z,4.20
2023-03-21T19:36:58.030Z,6.35
2023-03-21T19:41:01.605Z,3.95
2023-03-21T19:45:07.052Z,3.53
2023-03-21T19:49:10.333Z,6.55
2023-03-21T19:53:13.805Z,6.22
2023-03-21T19:57:17.395Z,5.50
2023-03-21T20:01:22.190Z,9.75
2023-03-21T20:05:25.737Z,6.72
2023-03-21T20:09:50.416Z,4.55
2023-03-21T20:13:52.490Z,6.60
2023-03-21T20:17:58.638Z,8.52
2023-03-21T20:22:02.846Z,7.82
2023-03-21T20:26:10.449Z,4.93
2023-03-21T20:30:16.127Z,5.10
2023-03-21T20:34:21.342Z,5.72
2023-03-21T20:38:25.092Z,6.43
2023-03-21T20:42:29.760Z,6.85
2023-03-21T20:46:32.760Z,6.32
2023-03-21T20:50:39.507Z,6.72
2023-03-21T20:54:49.218Z,9.40
2023-03-21T20:59:04.853Z,6.03
2023-03-21T21:03:15.905Z,6.13
2023-03-21T21:07:21.819Z,5.53
2023-03-21T21:12:05.146Z,5.78
2023-03-21T21:15:47.852Z,5.40
2023-03-21T21:19:50.937Z,8.40
2023-03-21T21:23:55.416Z,5.85
2023-03-21T21:27:58.362Z,5.43
2023-03-21T21:32:05.423Z,6.90
2023-03-21T21:36:10.429Z,5.28
2023-03-21T21:40:20.352Z,7.72
2023-03-21T21:44:23.495Z,3.78
2023-03-21T21:48:27.096Z,5.78
2023-03-21T21:52:30.200Z,4.15
2023-03-21T21:56:38.512Z,4.07
2023-03-21T22:00:42.698Z,6.35
2023-03-21T22:04:45.621Z,4.43
2023-03-21T22:08:51.945Z,8.43
2023-03-21T22:12:56.517Z,5.85
2023-03-21T22:17:00.254Z,6.70
2023-03-21T22:21:03.619Z,5.97
2023-03-21T22:25:10.398Z,4.00
2023-03-21T22:29:14.686Z,4.43
2023-03-21T22:33:17.614Z,4.90
2023-03-21T22:37:20.758Z,4.53
2023-03-21T22:41:23.671Z,4.95
2023-03-21T22:45:28.048Z,6.28
2023-03-21T22:49:31.829Z,5.95
2023-03-21T22:53:34.851Z,6.63
2023-03-21T22:57:38.426Z,6.80
2023-03-21T23:01:43.037Z,9.18
2023-03-21T23:05:47.410Z,7.85
2023-03-21T23:09:50.660Z,6.53
2023-03-21T23:14:06.789Z,6.55
2023-03-21T23:18:12.176Z,6.00
2023-03-21T23:22:15.309Z,5.22
2023-03-21T23:26:19.796Z,7.68
2023-03-21T23:30:22.820Z,7.00
2023-03-21T23:34:27.789Z,6.32
2023-03-21T23:38:30.769Z,5.90
2023-03-21T23:42:34.245Z,5.53
2023-03-21T23:46:37.276Z,5.95
2023-03-21T23:50:41.979Z,6.78
2023-03-21T23:54:45.087Z,6.13
2023-03-21T23:58:49.791Z,10.75
